• Join FlightAware (Why Join?)
  • Login
  • US Flag 
08:53PM EDT


 

Airport Tracker/Info


-or-


 

Live Flight TrackerFlight Track Log ✈ SWA3499 ✈ 06-Jul-2013 ✈ KMCO - KPIT

Flight Track Log - Related Links

Times and Time Zones

All times are in EDT time to prevent confusion due to time zone crossing. See the SWA3499 flight status page for this flight to view local times or setup timezone preferences in your user account.

Time Position Orientation Groundspeed Altitude Reporting Facility
EDT Latitude Longitude Course Direction KTS MPH feet Rate Location/Type
12:37PM 28.4167 -81.3000 150° Southeast 167 192 600  Level Orlando TRACON
12:38PM 28.3667 -81.2667 150° Southeast 186 214 4,000 3,180 Climbing Orlando TRACON
12:39PM 28.3667 -81.2333 90° East 232 267 7,400 3,420 Climbing Orlando TRACON
12:40PM 28.4500 -81.2333 360° North 305 351 10,900 3,120 Climbing Orlando TRACON
12:41PM 28.5500 -81.2667 344° North 354 407 14,300 2,280 Climbing Orlando TRACON
12:43PM 28.7222 -81.3042 349° North 383 441 17,400 2,160 Climbing Jacksonville Center
12:44PM 28.8292 -81.3283 349° North 383 441 20,100 2,700 Climbing Jacksonville Center
12:45PM 28.9400 -81.3528 349° North 394 453 22,900 1,620 Climbing Jacksonville Center
12:46PM 29.0553 -81.3842 347° North 407 468 23,400 1,500 Climbing Jacksonville Center
12:47PM 29.1703 -81.4014 353° North 414 476 26,000 2,340 Climbing Jacksonville Center
12:48PM 29.2933 -81.4117 356° North 424 488 28,100 2,100 Climbing Jacksonville Center
12:49PM 29.4208 -81.4217 356° North 441 507 30,300 1,440 Climbing Jacksonville Center
12:50PM 29.5464 -81.4364 354° North 446 513 31,000 600 Climbing Jacksonville Center
12:51PM 29.6736 -81.4417 358° North 451 519 31,500 1,440 Climbing Jacksonville Center
12:52PM 29.8031 -81.4397 North 456 525 33,900 2,280 Climbing Jacksonville Center
12:53PM 29.9283 -81.4378 North 456 525 36,100 2,100 Climbing Jacksonville Center
12:54PM 30.0536 -81.4383 360° North 456 525 38,100 1,860 Climbing Jacksonville Center
12:55PM 30.1747 -81.4364 North 451 519 39,900 1,440 Climbing Jacksonville Center
12:56PM 30.2833 -81.4350 North 436 502 41,000 540 Climbing Jacksonville Center
12:57PM 30.4022 -81.4306 North 431 496 41,000  Level Jacksonville Center
12:58PM 30.5253 -81.4192 North 431 496 41,000  Level Jacksonville Center
12:59PM 30.6461 -81.4053 North 431 496 41,000  Level Jacksonville Center
01:00PM 30.7631 -81.3961 North 431 496 41,000  Level Jacksonville Center
01:01PM 30.8839 -81.3869 North 431 496 41,000  Level Jacksonville Center
01:02PM 31.0050 -81.3753 North 431 496 41,000  Level Jacksonville Center
01:03PM 31.1258 -81.3611 North 426 490 41,000  Level Jacksonville Center
01:04PM 31.2428 -81.3494 North 426 490 41,000  Level Jacksonville Center
01:05PM 31.3739 -81.3328 North 421 484 41,000  Level Jacksonville Center
01:06PM 31.4803 -81.3214 North 421 484 41,000  Level Jacksonville Center
01:07PM 31.6117 -81.3117 North 426 490 41,000  Level Jacksonville Center
01:08PM 31.7328 -81.3000 North 426 490 41,000  Level Jacksonville Center
01:09PM 31.8392 -81.2883 North 426 490 41,000  Level Jacksonville Center
01:10PM 31.9767 -81.2736 North 440 506 41,000  Level Jacksonville Center
01:11PM 32.0956 -81.2617 North 440 506 41,000  Level Jacksonville Center
01:12PM 32.2186 -81.2497 North 440 506 41,000  Level Jacksonville Center
01:13PM 32.3394 -81.2328 North 440 506 41,000  Level Jacksonville Center
01:14PM 32.4453 -81.1964 16° North 440 506 41,000  Level Jacksonville Center
01:15PM 32.5700 -81.1447 19° North 433 498 41,000  Level Jacksonville Center
01:16PM 32.6717 -81.1033 19° North 428 493 41,000  Level Jacksonville Center
01:17PM 32.7939 -81.0492 20° North 423 487 41,000  Level Jacksonville Center
01:18PM 32.9061 -80.9997 20° North 423 487 41,000  Level Jacksonville Center
01:19PM 33.0200 -80.9528 19° North 423 487 41,000  Level Jacksonville Center
01:20PM 33.1342 -80.9031 20° North 423 487 41,000  Level Jacksonville Center
01:21PM 33.2483 -80.8633 16° North 423 487 41,000  Level Jacksonville Center
01:22PM 33.3714 -80.8581 North 423 487 41,000  Level Jacksonville Center
01:23PM 33.4922 -80.8553 North 423 487 41,000  Level Jacksonville Center
01:24PM 33.6133 -80.8500 North 429 494 41,000  Level Jacksonville Center
01:25PM 33.7342 -80.8472 North 429 494 41,000  Level Jacksonville Center
01:26PM 33.8553 -80.8419 North 429 494 41,000  Level Jacksonville Center
01:27PM 33.9761 -80.8367 North 429 494 41,000  Level Jacksonville Center
01:28PM 34.0969 -80.8311 North 429 494 41,000  Level Jacksonville Center
01:29PM 34.2181 -80.8258 North 429 494 41,000  Level Jacksonville Center
01:31PM 34.4844 -80.8181 North 442 509 41,000  Level Atlanta Center
01:32PM 34.6033 -80.8136 North 432 497 41,000  Level Atlanta Center
01:33PM 34.7264 -80.8064 North 432 497 41,000  Level Atlanta Center
01:34PM 34.8472 -80.8017 North 432 497 41,000  Level Atlanta Center
01:35PM 34.9661 -80.7997 North 432 497 41,000  Level Atlanta Center
01:36PM 35.0892 -80.7922 North 437 503 41,000  Level Atlanta Center
01:37PM 35.2078 -80.7850 North 432 497 41,000  Level Atlanta Center
01:38PM 35.3286 -80.7828 North 432 497 41,000  Level Atlanta Center
01:39PM 35.4494 -80.7756 North 432 497 41,000  Level Atlanta Center
01:40PM 35.5600 -80.7711 North 432 497 41,000  Level Atlanta Center
01:41PM 35.6831 -80.7661 North 437 503 41,000  Level Atlanta Center
01:42PM 35.8058 -80.7614 North 437 503 41,000  Level Atlanta Center
01:43PM 35.9289 -80.7589 North 437 503 41,000  Level Atlanta Center
01:44PM 36.0475 -80.7514 North 437 503 41,000  Level Atlanta Center
01:45PM 36.1728 -80.7489 North 432 497 41,000  Level Atlanta Center
01:46PM 36.2978 -80.7439 North 438 504 41,000  Level Atlanta Center
01:47PM 36.4186 -80.7389 North 438 504 41,000  Level Atlanta Center
01:48PM 36.5414 -80.7314 North 438 504 41,000  Level Atlanta Center
01:49PM 36.6642 -80.7261 North 438 504 41,000 -840 Level Atlanta Center
01:51PM 36.9411 -80.7217 North 455 524 38,500 -1,680 Descending Washington Center
01:52PM 37.0622 -80.7194 North 448 516 35,700 -1,800 Descending Washington Center
01:53PM 37.1764 -80.6881 12° North 448 516 35,000 -360 Descending Washington Center
01:54PM 37.2947 -80.6489 15° North 443 510 35,000 -3,000 Level Washington Center
01:55PM 37.4094 -80.6017 18° North 438 504 29,000 -900 Descending Washington Center
01:56PM 37.5286 -80.5467 20° North 438 504 33,300 1,440 Climbing Washington Center
01:57PM 37.6519 -80.4892 20° North 450 518 31,900 -1,500 Descending Washington Center
01:59PM 37.7922 -80.4247 20° North 470 541 30,100 -1,320 Descending Washington Center
02:00PM 37.9411 -80.3525 21° North 476 548 29,000 -540 Descending Washington Center
02:01PM 38.0961 -80.2806 20° North 476 548 29,000 -60 Level Washington Center
02:02PM 38.2217 -80.2197 21° North 476 548 28,900 -1,500 Descending Washington Center
02:03PM 38.3342 -80.1686 20° North 481 554 26,000 -2,460 Descending Washington Center
02:04PM 38.4575 -80.1072 21° North 476 548 24,000 -720 Descending Washington Center
02:06PM 38.7025 -79.9875 21° North 461 531 24,000  Level Cleveland Center
02:07PM 38.8231 -79.9250 22° Northeast 454 522 24,000  Level Cleveland Center
02:08PM 38.9456 -79.8733 18° North 454 522 24,000  Level Cleveland Center
02:09PM 39.0661 -79.8106 22° Northeast 454 522 24,000 -1,260 Level Cleveland Center
02:10PM 39.1844 -79.7531 21° North 454 522 21,500 -1,500 Descending Cleveland Center
02:11PM 39.3050 -79.7058 17° North 449 517 21,000 -300 Descending Cleveland Center
02:12PM 39.4300 -79.7069 360° North 442 509 21,000  Level Cleveland Center
02:13PM 39.5511 -79.7081 360° North 442 509 21,000 -60 Level Cleveland Center
02:14PM 39.6742 -79.7119 359° North 437 503 20,900 -1,380 Descending Cleveland Center
02:15PM 39.7928 -79.7103 North 437 503 18,300 -2,700 Descending Cleveland Center
02:16PM 39.8992 -79.7117 359° North 432 497 15,600 -2,760 Descending Cleveland Center
02:17PM 40.0097 -79.7131 359° North 413 475 12,800 -2,520 Descending Cleveland Center
02:18PM 40.1161 -79.7144 359° North 392 451 10,600 -1,500 Descending Cleveland Center
02:19PM 40.2036 -79.7378 348° North 368 423 9,800 -1,200 Descending Cleveland Center
02:20PM 40.2503 -79.8214 306° West 292 336 8,200 -1,500 Descending Cleveland Center
02:21PM 40.2925 -79.9053 303° West 273 314 6,900 -1,380 Descending Cleveland Center
02:22PM 40.3325 -79.9894 302° West 273 314 5,500 -1,320 Descending Cleveland Center
02:23PM 40.3725 -80.0681 304° West 268 308 4,300 -1,500 Descending Cleveland Center
02:24PM 40.4164 -80.1250 315° West 245 282 2,600 -1,200 Descending Cleveland Center
02:25PM 40.4478 -80.1656 315° West 200 230 2,000 -600 Descending Cleveland Center
02:27PM 40.4833 -80.2167 303° West  Level FlightAware Approximate
02:34PM 40.4915 -80.2329 303° West  Level Estimated